首页
METAR-TAF:

METAR-TAF

机场 :

伊斯兰堡, 巴基斯坦

贝娜齐尔·布托国际机场

纬度: 33-37N, 经度: 073-06E, 海拔: 507米

当前天气观测

该预报发布于52分钟前的21:30 UTC
风速4节,风向
温度 22°C
湿度 53%
气压 1006 hPa
能见度10公里或以上
1500米以下无云,无积雨云

METAR: OPRN 252130Z 36004KT CAVOK 22/12 Q1006 NOSIG RMK A2972

时间: 03:22 (22:22 UTC)

预报

该预报发布于6小时和52分钟前的15:30 UTC
预报有效从25日的 18点(UTC)到 26日的 24点(UTC)
风速10节,风向西北
能見度: 7000
短暂存在
从 26日的 01点(UTC)到 26日的 04点(UTC)
风速6节,风向东南
能見度: 4000
成为
从 26日的 04点(UTC)到 26日的 06点(UTC)
风速10节,风向西北
能见度10公里或以上
少量云层高于4000英尺
短暂存在
从 26日的 10点(UTC)到 26日的 16点(UTC)
风速15节,风向西北,有时为40节阵风
能見度: 0800
少量云层高于3000英尺, 积雨云.
散云层高于4000英尺
多云层高于10000英尺
成为
从 26日的 16点(UTC)到 26日的 18点(UTC)
风速10节,风向西北
能見度: 7000
少量云层高于4000英尺
散云层高于10000英尺
多云层高于20000英尺

TAF: OPRN 251530Z 2518/2624 32010KT 7000 NSC TEMPO 2601/2604 13006KT 4000 HZ BECMG 2604/2606 31010KT 9999 FEW040 TEMPO 2610/2616 32015G40KT 0800 DSTS FEW030CB SCT040 BKN100 BECMG 2616/2618 32010KT 7000 FEW040 SCT100 BKN200

超过4000个机场的气象观测和天气预报(METAR&TAF报告)。

可查询的气象台以黄色和红色小点在地图上表示。

将鼠标移到小点上方,可查看气象台名称。

然后点击查看天气观测和预报。

如需切换地图:点击带黑十字的绿色按钮放大地图;点击带横线的绿色按钮缩小地图;或者点击绿色箭头查看邻近地区的地图。


METAR-TAF: